createdAt,value
2022-10-21T00:00:57.253Z,14.59
2022-10-21T00:03:25.652Z,14.48
2022-10-21T00:05:52.861Z,14.37
2022-10-21T00:08:20.435Z,14.30
2022-10-21T00:10:51.563Z,14.26
2022-10-21T00:13:19.192Z,14.23
2022-10-21T00:15:48.676Z,14.16
2022-10-21T00:18:15.033Z,14.17
2022-10-21T00:20:41.489Z,14.15
2022-10-21T00:23:07.941Z,14.16
2022-10-21T00:25:36.628Z,14.13
2022-10-21T00:28:03.059Z,14.20
2022-10-21T00:30:32.234Z,14.26
2022-10-21T00:33:03.494Z,14.23
2022-10-21T00:35:33.355Z,14.24
2022-10-21T00:38:02.092Z,14.26
2022-10-21T00:40:28.624Z,14.30
2022-10-21T00:42:55.028Z,14.31
2022-10-21T00:45:30.610Z,14.32
2022-10-21T00:48:18.993Z,14.29
2022-10-21T00:51:00.758Z,14.29
2022-10-21T00:53:28.087Z,14.29
2022-10-21T00:55:59.887Z,14.31
2022-10-21T00:58:30.071Z,14.30
2022-10-21T01:00:59.047Z,14.30
2022-10-21T01:03:26.488Z,14.30
2022-10-21T01:05:54.400Z,14.31
2022-10-21T01:08:20.880Z,14.27
2022-10-21T01:10:50.026Z,14.18
2022-10-21T01:13:28.241Z,14.10
2022-10-21T01:16:19.553Z,14.00
2022-10-21T01:18:46.070Z,13.97
2022-10-21T01:21:40.027Z,13.99
2022-10-21T01:24:35.335Z,13.98
2022-10-21T01:27:21.009Z,13.98
2022-10-21T01:30:09.045Z,13.98
2022-10-21T01:32:56.859Z,13.86
2022-10-21T01:35:35.941Z,13.93
2022-10-21T01:38:34.458Z,13.85
2022-10-21T01:41:13.473Z,13.99
2022-10-21T01:44:02.245Z,13.95
2022-10-21T01:46:59.229Z,13.97
2022-10-21T01:49:48.017Z,13.99
2022-10-21T01:52:15.625Z,14.06
2022-10-21T01:54:48.802Z,13.98
2022-10-21T01:57:18.606Z,13.99
2022-10-21T01:59:48.118Z,13.93
2022-10-21T02:02:16.419Z,14.00
2022-10-21T02:04:50.112Z,13.99
2022-10-21T02:07:16.576Z,13.98
2022-10-21T02:09:45.259Z,13.92
2022-10-21T02:12:12.173Z,13.94
2022-10-21T02:14:47.375Z,13.90
2022-10-21T02:17:17.811Z,13.88
2022-10-21T02:19:46.566Z,13.95
2022-10-21T02:22:20.396Z,13.97
2022-10-21T02:24:59.873Z,13.90
2022-10-21T02:27:26.596Z,13.85
2022-10-21T02:29:59.534Z,13.87
2022-10-21T02:32:35.729Z,13.90
2022-10-21T02:35:21.753Z,13.83
2022-10-21T02:37:57.549Z,13.83
2022-10-21T02:40:45.712Z,13.87
2022-10-21T02:43:25.788Z,13.86
2022-10-21T02:45:58.733Z,13.91
2022-10-21T02:48:25.237Z,13.93
2022-10-21T02:50:54.027Z,13.92
2022-10-21T02:53:20.438Z,13.90
2022-10-21T02:55:46.838Z,13.95
2022-10-21T02:58:13.357Z,13.94
2022-10-21T03:00:39.836Z,13.97
2022-10-21T03:03:06.252Z,13.98
2022-10-21T03:05:32.677Z,13.94
2022-10-21T03:07:59.216Z,13.97
2022-10-21T03:10:25.615Z,13.96
2022-10-21T03:12:52.119Z,13.91
2022-10-21T03:15:18.597Z,13.87
2022-10-21T03:17:44.998Z,13.78
2022-10-21T03:20:11.448Z,13.75
2022-10-21T03:22:37.878Z,13.68
2022-10-21T03:25:07.106Z,13.62
2022-10-21T03:27:33.608Z,13.67
2022-10-21T03:30:00.233Z,13.65
2022-10-21T03:32:26.651Z,13.67
2022-10-21T03:34:55.390Z,13.60
2022-10-21T03:37:24.254Z,13.59
2022-10-21T03:39:52.909Z,13.55
2022-10-21T03:42:19.422Z,13.53
2022-10-21T03:44:48.258Z,13.46
2022-10-21T03:47:17.163Z,13.41
2022-10-21T03:49:45.907Z,13.49
2022-10-21T03:52:17.156Z,13.41
2022-10-21T03:54:43.658Z,13.45
2022-10-21T03:57:10.165Z,13.39
2022-10-21T03:59:36.576Z,13.37
2022-10-21T04:02:03.255Z,13.35
2022-10-21T04:04:29.709Z,13.35
2022-10-21T04:06:56.101Z,13.34
2022-10-21T04:09:24.673Z,13.38
2022-10-21T04:11:51.289Z,13.34
2022-10-21T04:14:17.682Z,13.38
2022-10-21T04:16:44.052Z,13.31
2022-10-21T04:19:16.956Z,13.29
2022-10-21T04:21:43.581Z,13.31
2022-10-21T04:24:10.053Z,13.36
2022-10-21T04:26:36.545Z,13.30
2022-10-21T04:29:03.100Z,13.28
2022-10-21T04:31:32.267Z,13.30
2022-10-21T04:33:58.912Z,13.28
2022-10-21T04:36:27.559Z,13.24
2022-10-21T04:38:54.113Z,13.21
2022-10-21T04:41:20.690Z,13.22
2022-10-21T04:43:47.186Z,13.22
2022-10-21T04:46:15.350Z,13.18
2022-10-21T04:48:41.903Z,13.25
2022-10-21T04:51:08.513Z,13.24
2022-10-21T04:53:35.256Z,13.23
2022-10-21T04:56:04.488Z,13.23
2022-10-21T04:58:31.426Z,13.26
2022-10-21T05:00:57.850Z,13.34
2022-10-21T05:03:29.258Z,13.33
2022-10-21T05:05:55.677Z,13.28
2022-10-21T05:08:22.455Z,13.29
2022-10-21T05:10:49.217Z,13.25
2022-10-21T05:13:15.647Z,13.31
2022-10-21T05:15:42.084Z,13.45
2022-10-21T05:18:10.690Z,13.44
2022-10-21T05:20:39.478Z,13.44
2022-10-21T05:23:05.870Z,13.49
2022-10-21T05:25:34.689Z,13.57
2022-10-21T05:28:01.235Z,13.52
2022-10-21T05:30:28.009Z,13.56
2022-10-21T05:32:54.630Z,13.61
2022-10-21T05:35:23.294Z,13.61
2022-10-21T05:37:49.661Z,13.64
2022-10-21T05:40:18.432Z,13.69
2022-10-21T05:42:45.607Z,13.77
2022-10-21T05:45:14.641Z,13.75
2022-10-21T05:47:41.500Z,13.79
2022-10-21T05:50:10.107Z,13.79
2022-10-21T05:52:39.333Z,13.79
2022-10-21T05:55:07.129Z,13.84
2022-10-21T05:57:35.711Z,13.81
2022-10-21T06:00:03.249Z,13.85
2022-10-21T06:02:29.628Z,13.86
2022-10-21T06:04:56.181Z,13.90
2022-10-21T06:07:22.556Z,13.89
2022-10-21T06:09:48.994Z,13.94
2022-10-21T06:12:15.472Z,13.96
2022-10-21T06:14:41.901Z,13.98
2022-10-21T06:17:08.611Z,13.96
2022-10-21T06:19:35.025Z,13.97
2022-10-21T06:22:01.392Z,14.00
2022-10-21T06:24:27.832Z,14.00
2022-10-21T06:26:54.164Z,14.09
2022-10-21T06:29:20.654Z,14.08
2022-10-21T06:31:47.082Z,14.13
2022-10-21T06:34:13.566Z,14.12
2022-10-21T06:36:40.071Z,14.16
2022-10-21T06:39:10.044Z,14.18
2022-10-21T06:41:36.405Z,14.19
2022-10-21T06:44:05.577Z,14.21
2022-10-21T06:46:32.034Z,14.32
2022-10-21T06:48:58.389Z,14.30
2022-10-21T06:51:25.078Z,14.30
2022-10-21T06:53:54.316Z,14.34
2022-10-21T06:56:21.520Z,14.33
2022-10-21T06:58:49.305Z,14.40
2022-10-21T07:01:33.540Z,14.40
2022-10-21T07:04:01.643Z,14.38
2022-10-21T07:06:28.167Z,14.40
2022-10-21T07:08:58.977Z,14.41
2022-10-21T07:11:28.875Z,14.43
2022-10-21T07:13:55.591Z,14.44
2022-10-21T07:16:27.474Z,14.44
2022-10-21T07:18:55.223Z,14.43
2022-10-21T07:21:23.618Z,14.46
2022-10-21T07:23:51.334Z,14.47
2022-10-21T07:26:19.494Z,14.48
2022-10-21T07:28:48.793Z,14.51
2022-10-21T07:31:23.076Z,14.54
2022-10-21T07:33:49.612Z,14.57
2022-10-21T07:36:22.218Z,14.60
2022-10-21T07:38:50.593Z,14.64
2022-10-21T07:41:22.887Z,14.68
2022-10-21T07:43:50.142Z,14.73
2022-10-21T07:46:18.136Z,14.69
2022-10-21T07:48:47.562Z,14.67
2022-10-21T07:51:19.283Z,14.72
2022-10-21T07:53:46.252Z,14.72
2022-10-21T07:56:16.079Z,14.69
2022-10-21T07:58:43.962Z,14.74
2022-10-21T08:01:11.692Z,14.78
2022-10-21T08:03:38.564Z,14.80
2022-10-21T08:06:06.684Z,14.82
2022-10-21T08:08:36.234Z,14.84
2022-10-21T08:11:05.930Z,14.84
2022-10-21T08:13:32.595Z,14.86
2022-10-21T08:15:59.372Z,14.85
2022-10-21T08:18:26.857Z,14.86
2022-10-21T08:20:54.334Z,14.88
2022-10-21T08:23:22.562Z,14.90
2022-10-21T08:26:00.790Z,14.87
2022-10-21T08:28:29.018Z,14.86
2022-10-21T08:31:03.875Z,14.85
2022-10-21T08:33:30.315Z,14.89
2022-10-21T08:35:56.758Z,14.94
2022-10-21T08:38:23.271Z,14.96
2022-10-21T08:40:54.937Z,14.99
2022-10-21T08:43:28.488Z,15.00
2022-10-21T08:46:18.057Z,15.00
2022-10-21T08:48:52.356Z,15.05
2022-10-21T08:52:10.865Z,15.09
2022-10-21T08:54:44.083Z,15.10
2022-10-21T08:57:11.820Z,15.09
2022-10-21T08:59:42.093Z,15.08
2022-10-21T09:02:16.951Z,15.05
2022-10-21T09:04:43.416Z,15.00
2022-10-21T09:07:26.483Z,15.04
2022-10-21T09:10:03.716Z,15.06
2022-10-21T09:12:41.678Z,15.05
2022-10-21T09:15:32.977Z,15.11
2022-10-21T09:18:20.081Z,15.12
2022-10-21T09:20:56.703Z,15.12
2022-10-21T09:23:30.050Z,15.20
2022-10-21T09:26:01.268Z,15.23
2022-10-21T09:28:28.919Z,15.31
2022-10-21T09:30:57.130Z,15.31
2022-10-21T09:33:29.763Z,15.38
2022-10-21T09:36:05.657Z,15.43
2022-10-21T09:38:56.901Z,15.47
2022-10-21T09:41:29.718Z,15.46
2022-10-21T09:43:56.266Z,15.53
2022-10-21T09:46:22.937Z,15.56
2022-10-21T09:51:45.347Z,15.54
2022-10-21T09:54:22.643Z,15.53
2022-10-21T09:57:00.889Z,15.52
2022-10-21T09:59:33.265Z,15.52
2022-10-21T10:02:14.271Z,15.54
2022-10-21T10:04:40.735Z,15.58
2022-10-21T10:07:27.891Z,15.59
2022-10-21T10:09:54.649Z,15.58
2022-10-21T10:12:26.111Z,15.57
2022-10-21T10:14:55.717Z,15.58
2022-10-21T10:17:31.357Z,15.60
2022-10-21T10:20:03.868Z,15.62
2022-10-21T10:22:41.928Z,15.69
2022-10-21T10:25:08.727Z,15.73
2022-10-21T10:27:36.133Z,15.76
2022-10-21T10:30:02.880Z,15.82
2022-10-21T10:32:32.298Z,15.88
2022-10-21T10:35:03.200Z,15.93
2022-10-21T10:37:34.898Z,15.94
2022-10-21T10:40:07.234Z,15.95
2022-10-21T10:42:47.711Z,16.02
2022-10-21T10:45:19.716Z,16.05
2022-10-21T10:47:56.270Z,16.09
2022-10-21T10:50:37.636Z,16.13
2022-10-21T10:53:23.954Z,16.27
2022-10-21T10:56:01.612Z,16.41
2022-10-21T10:58:32.133Z,16.46
2022-10-21T11:01:02.436Z,16.57
2022-10-21T11:03:55.870Z,16.56
2022-10-21T11:06:46.009Z,16.68
2022-10-21T11:09:16.042Z,16.74
2022-10-21T11:11:48.614Z,16.65
2022-10-21T11:14:22.525Z,16.72
2022-10-21T11:17:05.274Z,16.70
2022-10-21T11:19:43.842Z,16.83
2022-10-21T11:22:20.938Z,16.87
2022-10-21T11:25:02.469Z,16.94
2022-10-21T11:27:56.568Z,16.84
2022-10-21T11:30:41.431Z,16.88
2022-10-21T11:33:23.063Z,16.94
2022-10-21T11:36:04.054Z,16.99
2022-10-21T11:38:33.426Z,17.05
2022-10-21T11:41:08.012Z,16.97
2022-10-21T11:43:52.600Z,17.01
2022-10-21T11:46:25.038Z,17.03
2022-10-21T11:49:04.091Z,17.07
2022-10-21T11:51:48.215Z,17.06
2022-10-21T11:54:33.589Z,17.09
2022-10-21T11:57:33.260Z,17.15
2022-10-21T12:00:21.778Z,17.16
2022-10-21T12:03:09.440Z,17.14
2022-10-21T12:05:43.018Z,17.12
2022-10-21T12:08:12.553Z,17.15
2022-10-21T12:11:05.135Z,17.09
2022-10-21T12:13:43.154Z,17.15
2022-10-21T12:16:21.885Z,17.21
2022-10-21T12:19:05.655Z,17.31
2022-10-21T12:21:37.141Z,17.06
2022-10-21T12:24:47.448Z,17.05
2022-10-21T12:27:19.766Z,17.02
2022-10-21T12:30:06.808Z,17.01
2022-10-21T12:32:51.615Z,17.03
2022-10-21T12:38:56.303Z,17.21
2022-10-21T12:41:38.418Z,17.37
2022-10-21T12:44:15.165Z,17.43
2022-10-21T12:46:44.865Z,17.43
2022-10-21T12:49:32.794Z,17.38
2022-10-21T12:52:05.042Z,17.34
2022-10-21T12:54:44.513Z,17.30
2022-10-21T12:57:23.955Z,17.23
2022-10-21T12:59:50.395Z,17.29
2022-10-21T13:02:29.965Z,17.19
2022-10-21T13:04:57.596Z,17.21
2022-10-21T13:07:30.102Z,17.17
2022-10-21T13:09:59.423Z,17.17
2022-10-21T13:12:27.683Z,17.19
2022-10-21T13:15:23.256Z,17.20
2022-10-21T13:17:54.615Z,17.21
2022-10-21T13:20:44.920Z,17.33
2022-10-21T13:23:33.035Z,17.35
2022-10-21T13:26:12.494Z,17.31
2022-10-21T13:28:39.012Z,17.40
2022-10-21T13:31:07.830Z,17.46
2022-10-21T13:33:38.075Z,17.51
2022-10-21T13:36:14.429Z,17.55
2022-10-21T13:38:51.453Z,17.54
2022-10-21T13:41:29.782Z,17.55
2022-10-21T13:44:06.413Z,17.57
2022-10-21T13:46:40.689Z,17.55
2022-10-21T13:49:27.100Z,17.49
2022-10-21T13:51:53.586Z,17.42
2022-10-21T13:54:22.575Z,17.45
2022-10-21T13:56:51.462Z,17.43
2022-10-21T13:59:29.796Z,17.35
2022-10-21T14:01:57.888Z,17.36
2022-10-21T14:04:26.857Z,17.31
2022-10-21T14:07:03.759Z,17.29
2022-10-21T14:09:54.993Z,17.33
2022-10-21T14:12:46.363Z,17.34
2022-10-21T14:15:19.494Z,17.34
2022-10-21T14:17:55.234Z,17.34
2022-10-21T14:20:33.716Z,17.32
2022-10-21T14:23:05.494Z,17.34
2022-10-21T14:25:37.522Z,17.33
2022-10-21T14:28:05.058Z,17.32
2022-10-21T14:30:37.143Z,17.26
2022-10-21T14:33:06.255Z,17.22
2022-10-21T14:35:32.781Z,17.20
2022-10-21T14:38:04.539Z,17.18
2022-10-21T14:40:43.822Z,17.14
2022-10-21T14:43:12.956Z,17.11
2022-10-21T14:45:45.789Z,17.10
2022-10-21T14:48:28.986Z,17.04
2022-10-21T14:51:02.266Z,17.01
2022-10-21T14:53:38.207Z,16.97
2022-10-21T14:56:07.081Z,16.94
2022-10-21T14:58:36.851Z,16.88
2022-10-21T15:01:21.496Z,16.85
2022-10-21T15:04:03.570Z,16.80
2022-10-21T15:06:31.480Z,16.75
2022-10-21T15:08:58.008Z,16.70
2022-10-21T15:11:28.775Z,16.66
2022-10-21T15:14:28.494Z,16.65
2022-10-21T15:17:02.943Z,16.59
2022-10-21T15:19:41.558Z,16.53
2022-10-21T15:22:22.251Z,16.49
2022-10-21T15:24:49.637Z,16.48
2022-10-21T15:27:29.549Z,16.43
2022-10-21T15:30:34.949Z,16.39
2022-10-21T15:33:06.413Z,16.35
2022-10-21T15:35:32.761Z,16.33
2022-10-21T15:37:59.127Z,16.28
2022-10-21T15:40:25.555Z,16.24
2022-10-21T15:42:56.095Z,16.21
2022-10-21T15:45:23.635Z,16.15
2022-10-21T15:47:55.359Z,16.13
2022-10-21T15:50:26.728Z,16.13
2022-10-21T15:52:53.594Z,16.10
2022-10-21T15:55:20.089Z,16.08
2022-10-21T15:57:46.540Z,16.04
2022-10-21T16:00:21.721Z,15.99
2022-10-21T16:02:51.511Z,15.94
2022-10-21T16:05:22.862Z,15.92
2022-10-21T16:07:49.547Z,15.88
2022-10-21T16:10:19.116Z,15.86
2022-10-21T16:12:45.835Z,15.83
2022-10-21T16:15:12.881Z,15.79
2022-10-21T16:17:43.636Z,15.78
2022-10-21T16:20:25.870Z,15.72
2022-10-21T16:22:52.626Z,15.71
2022-10-21T16:25:19.787Z,15.69
2022-10-21T16:27:55.818Z,15.70
2022-10-21T16:30:27.376Z,15.59
2022-10-21T16:32:54.245Z,15.55
2022-10-21T16:35:21.506Z,15.54
2022-10-21T16:37:49.015Z,15.52
2022-10-21T16:40:23.072Z,15.46
2022-10-21T16:42:50.839Z,15.51
2022-10-21T16:45:19.033Z,15.46
2022-10-21T16:47:51.099Z,15.43
2022-10-21T16:50:46.032Z,15.41
2022-10-21T16:53:16.505Z,15.41
2022-10-21T16:55:43.348Z,15.39
2022-10-21T16:58:09.923Z,15.34
2022-10-21T17:00:36.493Z,15.30
2022-10-21T17:03:03.349Z,15.28
2022-10-21T17:05:30.026Z,15.24
2022-10-21T17:07:58.483Z,15.24
2022-10-21T17:10:24.993Z,15.26
2022-10-21T17:12:57.147Z,15.35
2022-10-21T17:15:23.582Z,15.37
2022-10-21T17:17:49.953Z,15.32
2022-10-21T17:20:16.436Z,15.27
2022-10-21T17:22:42.966Z,15.21
2022-10-21T17:25:15.004Z,15.23
2022-10-21T17:27:43.426Z,15.21
2022-10-21T17:30:11.515Z,15.17
2022-10-21T17:32:39.827Z,15.15
2022-10-21T17:35:14.412Z,15.14
2022-10-21T17:37:41.063Z,15.09
2022-10-21T17:40:08.657Z,15.07
2022-10-21T17:42:35.124Z,15.00
2022-10-21T17:45:03.792Z,15.06
2022-10-21T17:47:30.549Z,15.01
2022-10-21T17:49:59.473Z,14.94
2022-10-21T17:52:30.464Z,14.94
2022-10-21T17:54:56.795Z,14.95
2022-10-21T17:57:25.936Z,14.89
2022-10-21T17:59:53.593Z,14.86
2022-10-21T18:02:20.471Z,14.81
2022-10-21T18:04:49.171Z,14.75
2022-10-21T18:07:17.891Z,14.69
2022-10-21T18:09:46.595Z,14.68
2022-10-21T18:12:14.102Z,14.63
2022-10-21T18:14:40.673Z,14.56
2022-10-21T18:17:08.397Z,14.57
2022-10-21T18:19:35.003Z,14.48
2022-10-21T18:22:01.830Z,14.45
2022-10-21T18:24:30.975Z,14.50
2022-10-21T18:26:57.423Z,14.45
2022-10-21T18:29:23.878Z,14.44
2022-10-21T18:31:56.400Z,14.39
2022-10-21T18:34:22.817Z,14.41
2022-10-21T18:39:19.007Z,14.32
2022-10-21T18:41:45.938Z,14.39
2022-10-21T18:44:14.168Z,14.34
2022-10-21T18:46:42.374Z,14.32
2022-10-21T18:49:12.575Z,14.28
2022-10-21T18:51:41.393Z,14.28
2022-10-21T18:54:07.809Z,14.22
2022-10-21T18:56:34.337Z,14.19
2022-10-21T18:59:00.708Z,14.21
2022-10-21T19:01:27.200Z,14.15
2022-10-21T19:03:58.604Z,14.18
2022-10-21T19:06:31.222Z,14.18
2022-10-21T19:08:58.181Z,14.15
2022-10-21T19:11:24.715Z,14.13
2022-10-21T19:13:51.210Z,14.10
2022-10-21T19:16:22.470Z,14.11
2022-10-21T19:18:51.670Z,14.08
2022-10-21T19:21:19.832Z,14.07
2022-10-21T19:23:46.415Z,14.07
2022-10-21T19:26:13.496Z,14.06
2022-10-21T19:28:40.729Z,14.08
2022-10-21T19:31:08.528Z,14.09
2022-10-21T19:33:35.037Z,14.06
2022-10-21T19:36:02.664Z,14.15
2022-10-21T19:38:44.926Z,14.13
2022-10-21T19:41:17.106Z,14.10
2022-10-21T19:43:46.206Z,14.08
2022-10-21T19:46:22.194Z,14.16
2022-10-21T19:48:51.354Z,14.20
2022-10-21T19:51:22.905Z,14.25
2022-10-21T19:53:51.016Z,14.28
2022-10-21T19:56:23.897Z,14.26
2022-10-21T19:58:53.549Z,14.28
2022-10-21T20:01:22.673Z,14.32
2022-10-21T20:03:50.224Z,14.37
2022-10-21T20:06:26.781Z,14.38
2022-10-21T20:08:55.286Z,14.44
2022-10-21T20:11:22.114Z,14.41
2022-10-21T20:13:51.827Z,14.44
2022-10-21T20:16:21.165Z,14.42
2022-10-21T20:18:48.158Z,14.44
2022-10-21T20:21:14.758Z,14.44
2022-10-21T20:23:41.215Z,14.46
2022-10-21T20:26:08.780Z,14.36
2022-10-21T20:28:35.873Z,14.33
2022-10-21T20:31:30.018Z,14.28
2022-10-21T20:33:56.645Z,14.20
2022-10-21T20:36:26.234Z,14.20
2022-10-21T20:38:54.426Z,14.13
2022-10-21T20:41:25.784Z,14.12
2022-10-21T20:43:54.029Z,14.09
2022-10-21T20:46:24.742Z,14.17
2022-10-21T20:48:55.075Z,14.28
2022-10-21T20:51:28.969Z,14.22
2022-10-21T20:54:01.071Z,14.18
2022-10-21T20:56:31.782Z,14.20
2022-10-21T20:59:04.172Z,14.21
2022-10-21T21:01:35.991Z,14.29
2022-10-21T21:04:05.952Z,14.23
2022-10-21T21:06:39.517Z,14.29
2022-10-21T21:11:52.773Z,14.26
2022-10-21T21:14:19.389Z,14.33
2022-10-21T21:16:45.776Z,14.21
2022-10-21T21:19:13.545Z,14.23
2022-10-21T21:21:40.419Z,14.33
2022-10-21T21:24:09.566Z,14.28
2022-10-21T21:26:37.915Z,14.20
2022-10-21T21:29:06.309Z,14.17
2022-10-21T21:31:33.749Z,14.16
2022-10-21T21:34:00.227Z,14.17
2022-10-21T21:36:26.737Z,14.20
2022-10-21T21:38:55.715Z,14.22
2022-10-21T21:41:24.183Z,14.25
2022-10-21T21:43:56.504Z,14.21
2022-10-21T21:46:25.337Z,14.21
2022-10-21T21:48:59.597Z,14.18
2022-10-21T21:51:30.159Z,14.33
2022-10-21T21:53:57.609Z,14.25
2022-10-21T21:56:25.670Z,14.21
2022-10-21T21:58:54.902Z,14.18
2022-10-21T22:01:26.571Z,14.24
2022-10-21T22:03:58.452Z,14.23
2022-10-21T22:06:28.350Z,14.22
2022-10-21T22:08:55.679Z,14.20
2022-10-21T22:11:24.985Z,14.22
2022-10-21T22:13:51.741Z,14.18
2022-10-21T22:16:19.846Z,14.23
2022-10-21T22:18:46.289Z,14.30
2022-10-21T22:21:16.192Z,14.33
2022-10-21T22:23:45.309Z,14.35
2022-10-21T22:26:13.269Z,14.45
2022-10-21T22:28:40.844Z,14.42
2022-10-21T22:31:15.036Z,14.40
2022-10-21T22:36:10.153Z,14.47
2022-10-21T22:38:36.576Z,14.41
2022-10-21T22:41:07.160Z,14.36
2022-10-21T22:43:36.267Z,14.33
2022-10-21T22:46:15.390Z,14.31
2022-10-21T22:48:49.198Z,14.33
2022-10-21T22:51:15.591Z,14.29
2022-10-21T22:53:42.137Z,14.27
2022-10-21T22:56:08.811Z,14.26
2022-10-21T22:58:35.445Z,14.25
2022-10-21T23:01:06.882Z,14.27
2022-10-21T23:03:36.075Z,14.25
2022-10-21T23:06:05.126Z,14.32
2022-10-21T23:08:36.409Z,14.37
2022-10-21T23:11:02.844Z,14.33
2022-10-21T23:13:31.550Z,14.28
2022-10-21T23:15:57.954Z,14.30
2022-10-21T23:18:24.355Z,14.28
2022-10-21T23:20:53.696Z,14.29
2022-10-21T23:23:20.204Z,14.29
2022-10-21T23:25:46.618Z,14.27
2022-10-21T23:28:13.390Z,14.25
2022-10-21T23:30:40.519Z,14.25
2022-10-21T23:33:09.591Z,14.25
2022-10-21T23:35:36.009Z,14.28
2022-10-21T23:38:02.494Z,14.33
2022-10-21T23:40:28.954Z,14.37
2022-10-21T23:42:55.353Z,14.31
2022-10-21T23:45:24.081Z,14.29
2022-10-21T23:47:51.394Z,14.28
2022-10-21T23:50:17.879Z,14.25
2022-10-21T23:52:44.332Z,14.22
2022-10-21T23:55:10.870Z,14.24
2022-10-21T23:57:37.736Z,14.20
